createdAt,value
2022-10-05T00:01:24.143Z,74.17
2022-10-05T00:03:54.469Z,73.97
2022-10-05T00:06:22.469Z,73.97
2022-10-05T00:08:50.424Z,74.08
2022-10-05T00:11:18.878Z,74.09
2022-10-05T00:13:47.309Z,74.04
2022-10-05T00:16:17.741Z,73.93
2022-10-05T00:18:48.385Z,74.00
2022-10-05T00:21:24.701Z,74.17
2022-10-05T00:23:53.811Z,74.10
2022-10-05T00:26:23.218Z,73.96
2022-10-05T00:28:51.542Z,74.08
2022-10-05T00:31:21.310Z,73.98
2022-10-05T00:33:50.070Z,74.16
2022-10-05T00:36:19.026Z,74.17
2022-10-05T00:38:48.849Z,74.04
2022-10-05T00:41:22.122Z,74.05
2022-10-05T00:43:58.271Z,74.11
2022-10-05T00:46:28.461Z,74.33
2022-10-05T00:49:01.901Z,74.07
2022-10-05T00:51:31.441Z,74.20
2022-10-05T00:54:08.983Z,74.22
2022-10-05T00:56:48.762Z,74.24
2022-10-05T00:59:23.039Z,74.51
2022-10-05T01:01:58.539Z,74.73
2022-10-05T01:04:30.469Z,74.61
2022-10-05T01:07:07.612Z,74.84
2022-10-05T01:09:43.077Z,75.15
2022-10-05T01:12:16.037Z,75.04
2022-10-05T01:14:49.287Z,75.16
2022-10-05T01:17:20.783Z,75.64
2022-10-05T01:19:59.828Z,75.56
2022-10-05T01:22:37.939Z,75.95
2022-10-05T01:25:16.709Z,76.26
2022-10-05T01:27:52.221Z,75.90
2022-10-05T01:30:21.771Z,76.20
2022-10-05T01:32:52.334Z,76.01
2022-10-05T01:35:27.304Z,76.13
2022-10-05T01:38:02.704Z,76.32
2022-10-05T01:40:36.309Z,76.44
2022-10-05T01:43:12.111Z,76.33
2022-10-05T01:45:45.133Z,76.22
2022-10-05T01:48:19.194Z,76.85
2022-10-05T01:50:51.386Z,76.75
2022-10-05T01:53:24.954Z,76.82
2022-10-05T01:55:57.949Z,77.18
2022-10-05T01:58:33.659Z,77.12
2022-10-05T02:01:06.897Z,77.27
2022-10-05T02:03:39.247Z,77.44
2022-10-05T02:06:11.367Z,77.88
2022-10-05T02:08:42.120Z,77.30
2022-10-05T02:11:12.570Z,77.32
2022-10-05T02:13:44.522Z,77.52
2022-10-05T02:16:17.019Z,77.58
2022-10-05T02:18:48.847Z,77.69
2022-10-05T02:21:16.982Z,77.90
2022-10-05T02:23:46.782Z,78.61
2022-10-05T02:26:15.099Z,78.43
2022-10-05T02:28:49.107Z,78.18
2022-10-05T02:31:19.129Z,78.48
2022-10-05T02:33:47.487Z,78.41
2022-10-05T02:36:16.901Z,78.53
2022-10-05T02:38:51.350Z,78.79
2022-10-05T02:41:25.543Z,78.92
2022-10-05T02:44:01.182Z,79.48
2022-10-05T02:46:32.947Z,79.20
2022-10-05T02:49:07.445Z,79.54
2022-10-05T02:51:39.900Z,79.55
2022-10-05T02:54:12.614Z,79.85
2022-10-05T02:56:44.572Z,80.06
2022-10-05T02:59:16.591Z,79.90
2022-10-05T03:01:48.685Z,80.05
2022-10-05T03:04:22.821Z,79.96
2022-10-05T03:06:55.859Z,80.09
2022-10-05T03:09:26.752Z,80.09
2022-10-05T03:11:59.091Z,80.04
2022-10-05T03:14:33.352Z,80.43
2022-10-05T03:17:07.198Z,80.14
2022-10-05T03:19:45.701Z,80.22
2022-10-05T03:22:22.475Z,80.39
2022-10-05T03:24:59.015Z,80.18
2022-10-05T03:27:32.973Z,80.85
2022-10-05T03:30:05.372Z,80.97
2022-10-05T03:32:40.981Z,80.78
2022-10-05T03:35:13.412Z,80.55
2022-10-05T03:37:47.478Z,80.90
2022-10-05T03:40:23.158Z,80.86
2022-10-05T03:42:59.157Z,80.95
2022-10-05T03:45:32.039Z,80.76
2022-10-05T03:48:04.508Z,80.69
2022-10-05T03:50:40.816Z,81.09
2022-10-05T03:53:13.733Z,81.02
2022-10-05T03:55:45.318Z,81.06
2022-10-05T03:58:16.699Z,81.10
2022-10-05T04:00:49.231Z,81.25
2022-10-05T04:03:20.325Z,81.40
2022-10-05T04:05:50.673Z,81.46
2022-10-05T04:08:22.219Z,81.32
2022-10-05T04:10:52.315Z,81.41
2022-10-05T04:13:23.661Z,81.25
2022-10-05T04:15:56.997Z,81.32
2022-10-05T04:18:27.702Z,81.45
2022-10-05T04:20:57.351Z,81.81
2022-10-05T04:23:30.443Z,81.48
2022-10-05T04:26:03.827Z,81.49
2022-10-05T04:28:35.163Z,81.62
2022-10-05T04:31:07.170Z,81.60
2022-10-05T04:33:35.310Z,81.42
2022-10-05T04:36:13.366Z,81.51
2022-10-05T04:38:49.113Z,81.78
2022-10-05T04:41:30.523Z,81.58
2022-10-05T04:44:03.832Z,81.71
2022-10-05T04:46:41.841Z,81.50
2022-10-05T04:49:15.313Z,81.73
2022-10-05T04:51:51.170Z,81.50
2022-10-05T04:54:24.445Z,81.54
2022-10-05T04:56:55.038Z,81.72
2022-10-05T04:59:32.359Z,81.62
2022-10-05T05:02:06.842Z,81.75
2022-10-05T05:04:42.473Z,81.96
2022-10-05T05:07:17.173Z,81.53
2022-10-05T05:10:02.167Z,81.65
2022-10-05T05:12:41.889Z,81.90
2022-10-05T05:15:31.828Z,81.43
2022-10-05T05:18:12.099Z,81.51
2022-10-05T05:20:50.266Z,81.43
2022-10-05T05:23:22.381Z,81.32
2022-10-05T05:25:58.056Z,81.85
2022-10-05T05:28:31.217Z,81.55
2022-10-05T05:31:05.727Z,81.53
2022-10-05T05:33:41.625Z,81.50
2022-10-05T05:36:27.230Z,81.35
2022-10-05T05:39:01.853Z,81.37
2022-10-05T05:41:37.072Z,81.59
2022-10-05T05:44:07.603Z,81.74
2022-10-05T05:46:58.715Z,81.33
2022-10-05T05:49:32.556Z,81.51
2022-10-05T05:52:03.163Z,80.96
2022-10-05T05:54:35.582Z,80.96
2022-10-05T05:57:13.889Z,80.84
2022-10-05T05:59:50.206Z,81.17
2022-10-05T06:02:21.405Z,81.29
2022-10-05T06:04:52.646Z,81.30
2022-10-05T06:07:28.043Z,80.87
2022-10-05T06:10:02.338Z,79.86
2022-10-05T06:12:34.767Z,79.73
2022-10-05T06:15:05.392Z,80.03
2022-10-05T06:17:37.074Z,79.34
2022-10-05T06:20:13.221Z,79.82
2022-10-05T06:22:44.914Z,79.73
2022-10-05T06:25:22.916Z,79.62
2022-10-05T06:28:01.223Z,79.63
2022-10-05T06:30:33.440Z,79.98
2022-10-05T06:33:08.827Z,79.99
2022-10-05T06:35:45.409Z,79.74
2022-10-05T06:38:24.673Z,79.38
2022-10-05T06:40:59.670Z,79.07
2022-10-05T06:43:36.731Z,79.10
2022-10-05T06:46:08.767Z,79.11
2022-10-05T06:48:52.393Z,79.50
2022-10-05T06:51:24.395Z,78.82
2022-10-05T06:53:58.763Z,78.90
2022-10-05T06:56:29.965Z,78.39
2022-10-05T06:59:01.738Z,78.77
2022-10-05T07:01:40.340Z,78.99
2022-10-05T07:04:36.061Z,78.44
2022-10-05T07:07:10.874Z,78.48
2022-10-05T07:09:44.032Z,77.85
2022-10-05T07:12:21.488Z,78.16
2022-10-05T07:14:57.834Z,78.57
2022-10-05T07:17:30.193Z,78.29
2022-10-05T07:20:04.839Z,78.38
2022-10-05T07:22:41.569Z,77.82
2022-10-05T07:25:15.273Z,77.56
2022-10-05T07:27:51.066Z,77.03
2022-10-05T07:30:20.485Z,77.92
2022-10-05T07:32:53.252Z,77.80
2022-10-05T07:35:43.996Z,77.17
2022-10-05T07:38:14.748Z,77.34
2022-10-05T07:40:48.536Z,76.92
2022-10-05T07:43:24.406Z,76.83
2022-10-05T07:45:54.998Z,76.96
2022-10-05T07:48:24.551Z,77.02
2022-10-05T07:51:00.350Z,77.39
2022-10-05T07:53:32.806Z,77.52
2022-10-05T07:56:10.103Z,77.41
2022-10-05T07:58:42.521Z,77.44
2022-10-05T08:01:17.137Z,77.00
2022-10-05T08:03:50.048Z,77.50
2022-10-05T08:06:21.733Z,77.51
2022-10-05T08:08:52.860Z,77.53
2022-10-05T08:11:26.166Z,77.27
2022-10-05T08:13:57.468Z,77.18
2022-10-05T08:16:28.918Z,77.70
2022-10-05T08:18:58.692Z,78.13
2022-10-05T08:21:29.189Z,78.10
2022-10-05T08:23:59.346Z,78.02
2022-10-05T08:26:34.236Z,78.06
2022-10-05T08:29:13.822Z,78.17
2022-10-05T08:31:45.257Z,77.45
2022-10-05T08:34:22.359Z,77.01
2022-10-05T08:36:55.932Z,76.71
2022-10-05T08:39:28.972Z,75.88
2022-10-05T08:42:29.840Z,75.38
2022-10-05T08:45:10.934Z,74.97
2022-10-05T08:47:53.619Z,75.15
2022-10-05T08:50:26.775Z,73.59
2022-10-05T08:53:09.963Z,72.58
2022-10-05T08:55:44.736Z,73.62
2022-10-05T08:58:27.089Z,73.89
2022-10-05T09:01:01.382Z,74.02
2022-10-05T09:03:47.371Z,73.96
2022-10-05T09:06:39.174Z,72.01
2022-10-05T09:09:19.835Z,72.59
2022-10-05T09:11:58.331Z,73.05
2022-10-05T09:14:35.056Z,73.39
2022-10-05T09:17:10.623Z,72.37
2022-10-05T09:19:57.514Z,73.57
2022-10-05T09:22:35.549Z,73.47
2022-10-05T09:25:11.167Z,73.31
2022-10-05T09:27:40.734Z,73.80
2022-10-05T09:30:23.673Z,73.36
2022-10-05T09:33:09.469Z,73.37
2022-10-05T09:35:57.438Z,73.40
2022-10-05T09:38:31.614Z,73.53
2022-10-05T09:41:29.489Z,73.15
2022-10-05T09:44:24.587Z,72.38
2022-10-05T09:47:04.714Z,71.93
2022-10-05T09:49:51.758Z,70.01
2022-10-05T09:52:38.085Z,70.67
2022-10-05T09:55:25.830Z,69.63
2022-10-05T09:58:12.075Z,69.53
2022-10-05T10:01:09.090Z,69.59
2022-10-05T10:04:07.550Z,70.25
2022-10-05T10:06:51.475Z,71.01
2022-10-05T10:09:27.452Z,69.93
2022-10-05T10:12:05.907Z,69.45
2022-10-05T10:15:11.938Z,70.55
2022-10-05T10:18:02.117Z,70.24
2022-10-05T10:20:37.782Z,70.18
2022-10-05T10:23:16.788Z,68.43
2022-10-05T10:26:02.982Z,68.75
2022-10-05T10:28:45.128Z,65.53
2022-10-05T10:31:19.300Z,66.07
2022-10-05T10:34:00.247Z,63.46
2022-10-05T10:36:39.278Z,61.55
2022-10-05T10:39:14.055Z,59.89
2022-10-05T10:41:57.444Z,61.03
2022-10-05T10:44:43.998Z,59.78
2022-10-05T10:47:26.245Z,58.96
2022-10-05T10:50:08.592Z,59.53
2022-10-05T10:52:49.303Z,60.98
2022-10-05T10:55:26.738Z,58.85
2022-10-05T10:58:13.633Z,59.46
2022-10-05T11:00:50.390Z,59.99
2022-10-05T11:03:37.398Z,60.15
2022-10-05T11:06:18.417Z,61.51
2022-10-05T11:08:57.291Z,61.60
2022-10-05T11:11:40.068Z,61.58
2022-10-05T11:14:30.164Z,60.86
2022-10-05T11:17:11.003Z,61.78
2022-10-05T11:20:03.178Z,62.46
2022-10-05T11:22:53.433Z,62.23
2022-10-05T11:25:44.687Z,62.84
2022-10-05T11:28:28.460Z,63.57
2022-10-05T11:31:12.166Z,64.49
2022-10-05T11:34:05.264Z,65.95
2022-10-05T11:36:44.044Z,66.48
2022-10-05T11:39:39.698Z,66.82
2022-10-05T11:42:15.462Z,66.88
2022-10-05T11:45:07.712Z,66.96
2022-10-05T11:47:41.151Z,68.31
2022-10-05T11:50:18.679Z,68.67
2022-10-05T11:52:49.632Z,69.61
2022-10-05T11:55:23.549Z,70.00
2022-10-05T11:57:54.570Z,70.23
2022-10-05T12:00:24.624Z,71.18
2022-10-05T12:03:16.376Z,70.82
2022-10-05T12:05:50.794Z,71.04
2022-10-05T12:08:25.194Z,71.27
2022-10-05T12:11:00.218Z,71.39
2022-10-05T12:13:35.804Z,70.31
2022-10-05T12:16:09.306Z,69.91
2022-10-05T12:18:48.343Z,70.57
2022-10-05T12:21:23.037Z,70.02
2022-10-05T12:23:53.996Z,69.24
2022-10-05T12:26:25.944Z,69.34
2022-10-05T12:28:57.493Z,69.06
2022-10-05T12:31:31.748Z,71.63
2022-10-05T12:34:06.818Z,72.04
2022-10-05T12:36:59.630Z,70.94
2022-10-05T12:39:33.153Z,70.90
2022-10-05T12:42:08.917Z,71.39
2022-10-05T12:44:44.308Z,71.41
2022-10-05T12:47:18.139Z,71.76
2022-10-05T12:50:02.144Z,71.60
2022-10-05T12:52:46.305Z,72.11
2022-10-05T12:55:18.315Z,72.27
2022-10-05T12:57:49.350Z,72.90
2022-10-05T13:00:22.694Z,71.50
2022-10-05T13:02:52.402Z,72.57
2022-10-05T13:05:27.105Z,72.54
2022-10-05T13:08:09.059Z,72.39
2022-10-05T13:10:39.731Z,72.53
2022-10-05T13:13:16.989Z,72.45
2022-10-05T13:15:48.753Z,72.05
2022-10-05T13:18:22.527Z,72.37
2022-10-05T13:20:58.227Z,72.42
2022-10-05T13:23:31.514Z,72.46
2022-10-05T13:26:03.307Z,72.82
2022-10-05T13:28:34.482Z,72.93
2022-10-05T13:31:05.445Z,73.05
2022-10-05T13:33:42.162Z,73.32
2022-10-05T13:36:15.639Z,73.31
2022-10-05T13:38:50.378Z,73.25
2022-10-05T13:41:24.744Z,73.66
2022-10-05T13:44:00.315Z,73.46
2022-10-05T13:46:35.944Z,73.30
2022-10-05T13:49:09.605Z,73.55
2022-10-05T13:51:41.427Z,74.29
2022-10-05T13:54:15.841Z,74.64
2022-10-05T13:56:46.171Z,74.12
2022-10-05T13:59:17.729Z,74.47
2022-10-05T14:01:51.690Z,75.92
2022-10-05T14:04:21.313Z,75.89
2022-10-05T14:06:51.951Z,75.90
2022-10-05T14:09:30.950Z,75.15
2022-10-05T14:12:13.605Z,75.49
2022-10-05T14:14:46.493Z,75.85
2022-10-05T14:17:16.256Z,76.04
2022-10-05T14:19:45.855Z,76.57
2022-10-05T14:22:17.906Z,76.43
2022-10-05T14:24:51.465Z,76.84
2022-10-05T14:27:24.165Z,76.16
2022-10-05T14:30:00.004Z,75.61
2022-10-05T14:32:28.916Z,76.49
2022-10-05T14:35:01.280Z,76.13
2022-10-05T14:37:44.833Z,76.47
2022-10-05T14:40:23.733Z,76.09
2022-10-05T14:42:52.509Z,76.15
2022-10-05T14:45:22.533Z,76.49
2022-10-05T14:47:52.354Z,76.35
2022-10-05T14:50:25.846Z,76.98
2022-10-05T14:53:16.808Z,76.97
2022-10-05T14:55:57.270Z,77.04
2022-10-05T14:58:43.474Z,77.84
2022-10-05T15:01:17.083Z,77.92
2022-10-05T15:03:48.704Z,77.35
2022-10-05T15:06:22.701Z,78.24
2022-10-05T15:09:32.929Z,78.26
2022-10-05T15:12:03.764Z,78.52
2022-10-05T15:14:33.211Z,78.37
2022-10-05T15:17:03.558Z,77.67
2022-10-05T15:19:38.212Z,77.41
2022-10-05T15:22:14.917Z,77.68
2022-10-05T15:24:45.730Z,76.75
2022-10-05T15:27:19.566Z,77.49
2022-10-05T15:29:56.598Z,76.98
2022-10-05T15:32:34.063Z,76.75
2022-10-05T15:35:14.072Z,76.27
2022-10-05T15:37:44.520Z,76.51
2022-10-05T15:40:20.336Z,75.96
2022-10-05T15:42:54.425Z,75.47
2022-10-05T15:45:25.728Z,75.76
2022-10-05T15:47:55.199Z,75.89
2022-10-05T15:50:25.970Z,75.97
2022-10-05T15:52:57.598Z,75.73
2022-10-05T15:55:32.281Z,76.05
2022-10-05T15:58:11.860Z,75.71
2022-10-05T16:00:42.693Z,75.68
2022-10-05T16:03:19.138Z,75.38
2022-10-05T16:06:08.907Z,75.19
2022-10-05T16:08:56.933Z,75.06
2022-10-05T16:11:43.081Z,74.91
2022-10-05T16:14:21.473Z,74.88
2022-10-05T16:16:57.757Z,74.62
2022-10-05T16:19:29.745Z,74.70
2022-10-05T16:22:03.528Z,74.94
2022-10-05T16:24:45.139Z,74.51
2022-10-05T16:27:17.511Z,74.54
2022-10-05T16:29:55.124Z,74.64
2022-10-05T16:32:25.874Z,75.25
2022-10-05T16:34:59.935Z,75.48
2022-10-05T16:37:32.939Z,75.50
2022-10-05T16:40:03.746Z,75.84
2022-10-05T16:42:42.664Z,75.39
2022-10-05T16:45:28.698Z,75.66
2022-10-05T16:48:03.929Z,75.93
2022-10-05T16:50:37.415Z,76.29
2022-10-05T16:53:11.227Z,76.58
2022-10-05T16:55:41.536Z,76.21
2022-10-05T16:58:15.915Z,76.30
2022-10-05T17:00:53.008Z,76.04
2022-10-05T17:03:30.779Z,76.44
2022-10-05T17:06:26.149Z,76.32
2022-10-05T17:09:12.394Z,76.41
2022-10-05T17:11:46.828Z,76.31
2022-10-05T17:14:21.605Z,76.22
2022-10-05T17:16:58.019Z,76.58
2022-10-05T17:19:33.206Z,76.61
2022-10-05T17:22:03.388Z,76.46
2022-10-05T17:24:42.950Z,76.50
2022-10-05T17:27:18.001Z,76.29
2022-10-05T17:29:50.096Z,76.17
2022-10-05T17:32:39.702Z,76.00
2022-10-05T17:35:20.504Z,75.88
2022-10-05T17:38:07.690Z,75.84
2022-10-05T17:40:36.749Z,75.81
2022-10-05T17:43:06.884Z,75.89
2022-10-05T17:45:55.486Z,75.85
2022-10-05T17:48:42.100Z,75.69
2022-10-05T17:51:58.199Z,75.56
2022-10-05T17:54:48.181Z,75.83
2022-10-05T17:57:22.135Z,76.24
2022-10-05T17:59:58.012Z,75.83
2022-10-05T18:02:39.875Z,75.83
2022-10-05T18:05:18.150Z,75.97
2022-10-05T18:07:48.997Z,76.28
2022-10-05T18:10:24.915Z,76.58
2022-10-05T18:13:13.159Z,76.68
2022-10-05T18:15:44.513Z,77.15
2022-10-05T18:18:34.645Z,77.96
2022-10-05T18:21:20.810Z,78.16
2022-10-05T18:24:01.538Z,78.65
2022-10-05T18:26:33.733Z,78.39
2022-10-05T18:29:40.301Z,78.40
2022-10-05T18:32:15.858Z,78.47
2022-10-05T18:34:51.653Z,78.40
2022-10-05T18:37:26.171Z,78.50
2022-10-05T18:40:08.756Z,78.56
2022-10-05T18:42:40.779Z,78.50
2022-10-05T18:45:21.675Z,78.85
2022-10-05T18:47:53.369Z,78.42
2022-10-05T18:50:27.447Z,78.12
2022-10-05T18:53:03.269Z,77.86
2022-10-05T18:55:36.542Z,77.60
2022-10-05T18:58:12.301Z,78.04
2022-10-05T19:00:53.773Z,77.93
2022-10-05T19:03:24.964Z,77.72
2022-10-05T19:05:57.349Z,77.76
2022-10-05T19:08:30.982Z,77.76
2022-10-05T19:11:06.444Z,77.50
2022-10-05T19:13:42.911Z,77.25
2022-10-05T19:16:23.968Z,77.12
2022-10-05T19:19:01.244Z,76.87
2022-10-05T19:21:34.826Z,76.65
2022-10-05T19:24:20.556Z,76.53
2022-10-05T19:27:00.079Z,76.57
2022-10-05T19:29:36.883Z,76.95
2022-10-05T19:32:08.995Z,76.80
2022-10-05T19:34:45.054Z,77.21
2022-10-05T19:37:15.830Z,77.25
2022-10-05T19:39:49.503Z,77.65
2022-10-05T19:42:24.834Z,77.46
2022-10-05T19:44:58.369Z,77.76
2022-10-05T19:47:35.319Z,77.92
2022-10-05T19:50:26.582Z,78.12
2022-10-05T19:53:02.565Z,78.52
2022-10-05T19:55:34.807Z,78.83
2022-10-05T19:58:17.660Z,78.47
2022-10-05T20:00:49.453Z,78.22
2022-10-05T20:03:18.864Z,78.21
2022-10-05T20:05:48.349Z,78.64
2022-10-05T20:08:18.527Z,78.20
2022-10-05T20:10:47.069Z,78.14
2022-10-05T20:13:23.895Z,78.43
2022-10-05T20:16:31.098Z,78.54
2022-10-05T20:19:17.099Z,78.41
2022-10-05T20:21:50.217Z,78.32
2022-10-05T20:24:20.042Z,78.32
2022-10-05T20:27:16.162Z,78.46
2022-10-05T20:29:47.460Z,78.49
2022-10-05T20:32:19.011Z,78.33
2022-10-05T20:34:54.193Z,78.61
2022-10-05T20:37:22.140Z,78.49
2022-10-05T20:39:50.943Z,78.44
2022-10-05T20:42:20.230Z,78.80
2022-10-05T20:44:54.313Z,78.78
2022-10-05T20:47:24.694Z,79.08
2022-10-05T20:49:54.703Z,79.04
2022-10-05T20:52:23.705Z,79.07
2022-10-05T20:58:20.387Z,78.96
2022-10-05T21:01:09.729Z,78.97
2022-10-05T21:03:42.167Z,78.77
2022-10-05T21:06:12.682Z,78.78
2022-10-05T21:08:43.110Z,79.26
2022-10-05T21:11:11.381Z,78.75
2022-10-05T21:13:42.575Z,78.72
2022-10-05T21:16:13.620Z,78.52
2022-10-05T21:18:44.402Z,78.39
2022-10-05T21:21:14.487Z,78.42
2022-10-05T21:23:42.530Z,78.62
2022-10-05T21:26:11.887Z,78.46
2022-10-05T21:28:40.498Z,78.50
2022-10-05T21:31:09.061Z,78.64
2022-10-05T21:33:39.127Z,79.06
2022-10-05T21:36:07.723Z,79.92
2022-10-05T21:38:36.058Z,80.10
2022-10-05T21:41:04.445Z,80.07
2022-10-05T21:43:32.715Z,80.53
2022-10-05T21:46:01.492Z,80.75
2022-10-05T21:48:31.284Z,80.67
2022-10-05T21:51:03.347Z,80.75
2022-10-05T21:53:33.262Z,80.61
2022-10-05T21:56:03.547Z,81.33
2022-10-05T21:58:32.118Z,81.71
2022-10-05T22:01:00.260Z,80.88
2022-10-05T22:03:28.417Z,81.35
2022-10-05T22:05:56.777Z,81.30
2022-10-05T22:08:28.825Z,81.02
2022-10-05T22:10:57.513Z,81.66
2022-10-05T22:13:26.930Z,81.64
2022-10-05T22:15:56.671Z,81.46
2022-10-05T22:18:25.813Z,81.81
2022-10-05T22:20:54.527Z,81.85
2022-10-05T22:23:22.576Z,81.25
2022-10-05T22:25:52.004Z,80.84
2022-10-05T22:28:20.299Z,81.32
2022-10-05T22:30:48.496Z,81.28
2022-10-05T22:33:16.711Z,81.76
2022-10-05T22:35:44.731Z,81.76
2022-10-05T22:38:12.746Z,80.88
2022-10-05T22:40:40.994Z,81.56
2022-10-05T22:43:10.440Z,81.52
2022-10-05T22:45:38.566Z,81.31
2022-10-05T22:48:06.689Z,81.25
2022-10-05T22:50:34.755Z,81.12
2022-10-05T22:53:03.129Z,81.38
2022-10-05T22:55:31.396Z,81.11
2022-10-05T22:57:59.507Z,81.07
2022-10-05T23:00:53.402Z,81.16
2022-10-05T23:03:17.195Z,81.39
2022-10-05T23:05:45.308Z,81.16
2022-10-05T23:08:13.317Z,81.62
2022-10-05T23:10:41.296Z,81.45
2022-10-05T23:13:09.367Z,81.26
2022-10-05T23:15:38.872Z,81.44
2022-10-05T23:18:07.016Z,81.66
2022-10-05T23:20:35.048Z,82.03
2022-10-05T23:23:02.968Z,81.96
2022-10-05T23:25:31.088Z,81.61
2022-10-05T23:27:59.127Z,81.61
2022-10-05T23:30:27.206Z,81.85
2022-10-05T23:32:56.782Z,82.06
2022-10-05T23:35:24.760Z,81.89
2022-10-05T23:37:52.856Z,81.70
2022-10-05T23:40:21.195Z,81.59
2022-10-05T23:42:49.534Z,81.52
2022-10-05T23:45:17.567Z,81.44
2022-10-05T23:47:45.595Z,80.91
2022-10-05T23:50:15.102Z,81.24
2022-10-05T23:52:43.146Z,81.42
2022-10-05T23:55:11.730Z,81.09
2022-10-05T23:57:40.619Z,80.84
